This demonstration page uses our WeatherBlox Daily Observations layout. Learn more.

41.55636, -103.73856

Hourly Observations for January 14, 2019

Temp ( °F °C ) Dew Point ( °F °C ) Humidity (%) Winds ( mph kmh ) Pressure ( in mb ) Visibility ( mi km ) Precip ( " mm )
12:53 am 00:53 Clear 14 -10 11 -11.7 88 88 NW 9 15 30.3 1026 10 16.09344 0 0
1:53 am 01:53 Clear 11 -11.7 9 -12.8 92 92 WNW 7 11 30.3 1026 10 16.09344 0 0
2:53 am 02:53 Clear 12 -11.1 9 -12.8 87 87 WNW 9 15 30.3 1026 10 16.09344 0 0
3:53 am 03:53 Clear 11 -11.7 8 -13.3 88 88 NW 10 17 30.3 1026 10 16.09344 0 0
4:53 am 04:53 Clear 10 -12.2 8 -13.3 92 92 WNW 7 11 30.33 1027 10 16.09344 0 0
5:53 am 05:53 Clear 10 -12.2 8 -13.3 92 92 NNW 9 15 30.33 1027 10 16.09344 0 0
6:53 am 06:53 Clear 11 -11.7 8 -13.3 88 88 WNW 9 15 30.36 1028 10 16.09344 0 0
7:53 am 07:53 Sunny 12 -11.1 8 -13.3 84 84 NW 7 11 30.36 1028 10 16.09344 0 0
8:53 am 08:53 Sunny 20 -6.7 14 -10 78 78 NW 8 13 30.36 1028 10 16.09344 0 0
9:53 am 09:53 Sunny 27 -2.8 15 -9.4 61 61 WNW 8 13 30.36 1028 10 16.09344 0 0
10:53 am 10:53 Sunny 34 1.1 16 -8.9 48 48 WNW 10 17 30.3 1026 10 16.09344 0 0
11:53 am 11:53 Sunny 41 5 14 -10 33 33 WNW 13 20 30.27 1025 10 16.09344 0 0
12:53 pm 12:53 Sunny 45 7.2 15 -9.4 30 30 WNW 12 19 30.24 1024 10 16.09344 0 0
1:53 pm 13:53 Sunny 48 8.9 16 -8.9 28 28 W 8 13 30.21 1023 10 16.09344 0 0
2:53 pm 14:53 Sunny 51 10.6 12 -11.1 21 21 WNW 12 19 30.21 1023 10 16.09344 0 0
3:53 pm 15:53 Sunny 48 8.9 13 -10.6 24 24 W 8 13 30.21 1023 10 16.09344 0 0
4:53 pm 16:53 Clear 40 4.4 13 -10.6 33 33 W 9 15 30.24 1024 10 16.09344 0 0
5:53 pm 17:53 Clear 34 1.1 12 -11.1 40 40 WNW 9 15 30.27 1025 10 16.09344 0 0
6:53 pm 18:53 Clear 31 -0.6 12 -11.1 45 45 WNW 8 13 30.27 1025 10 16.09344 0 0
7:53 pm 19:53 Clear 27 -2.8 12 -11.1 53 53 NNW 6 9 30.27 1025 10 16.09344 0 0
8:53 pm 20:53 Clear 27 -2.8 12 -11.1 53 53 NW 8 13 30.24 1024 10 16.09344 0 0
9:53 pm 21:53 Clear 24 -4.4 12 -11.1 60 60 NNW 9 15 30.24 1024 10 16.09344 0 0
10:53 pm 22:53 Clear 25 -3.9 13 -10.6 60 60 NNW 7 11 30.21 1023 10 16.09344 0 0
11:53 pm 23:53 Clear 23 -5 12 -11.1 63 63 WNW 5 7 30.18 1022 10 16.09344 0 0

Powered by AerisWeather